Time;durP1;ratioP1;P1;durP2;ratioP2;P2;SDS_P1;SDS_P2;PMS_P1;PMS_P2;Temp;Humidity;BMP_temperature;BMP_pressure;BME280_temperature;BME280_humidity;BME280_pressure;Samples;Min_cycle;Max_cycle;Signal;HPM_P1;HPM_P2
2021/03/19 00:01:09;;;;;;;14.27;11.10;;;7.30;92.50;;;;;;5095189;28;20509;-71
2021/03/19 00:03:36;;;;;;;12.87;10.30;;;7.30;92.50;;;;;;5095919;28;20439;-71
2021/03/19 00:06:02;;;;;;;13.23;11.83;;;7.20;92.30;;;;;;5095712;28;20460;-72
2021/03/19 00:08:28;;;;;;;13.53;12.00;;;7.20;92.20;;;;;;5095824;28;20439;-72
2021/03/19 00:10:55;;;;;;;15.40;12.07;;;7.20;92.30;;;;;;5095693;28;20464;-72
2021/03/19 00:13:22;;;;;;;13.10;11.20;;;7.20;92.40;;;;;;5095747;28;20475;-72
2021/03/19 00:15:48;;;;;;;16.83;12.23;;;7.20;92.30;;;;;;5096041;28;20461;-72
2021/03/19 00:18:14;;;;;;;16.17;11.67;;;7.20;92.30;;;;;;5096701;28;20439;-72
2021/03/19 00:20:42;;;;;;;12.73;11.37;;;7.20;92.20;;;;;;5096137;28;20463;-72
2021/03/19 00:23:09;;;;;;;13.30;12.00;;;7.20;92.20;;;;;;5095657;28;20440;-72
2021/03/19 00:25:37;;;;;;;13.70;12.03;;;7.10;92.00;;;;;;5095706;28;20531;-72
2021/03/19 00:28:05;;;;;;;14.57;12.70;;;7.10;92.00;;;;;;5095557;28;20440;-72
2021/03/19 00:30:32;;;;;;;12.80;11.47;;;7.00;92.00;;;;;;5095316;28;20460;-72
2021/03/19 00:32:59;;;;;;;13.23;11.30;;;7.00;91.90;;;;;;5094985;28;21008;-72
2021/03/19 00:35:25;;;;;;;12.73;11.47;;;7.00;91.90;;;;;;5095267;28;20447;-72
2021/03/19 00:37:52;;;;;;;12.10;10.90;;;7.00;91.80;;;;;;5095309;28;20439;-72
2021/03/19 00:40:19;;;;;;;13.70;12.30;;;7.00;91.70;;;;;;5095245;28;20474;-72
2021/03/19 00:42:45;;;;;;;15.77;11.73;;;6.90;91.30;;;;;;5095202;28;20512;-72
2021/03/19 00:45:15;;;;;;;13.77;12.10;;;7.00;91.10;;;;;;5095144;28;20450;-72
2021/03/19 00:47:41;;;;;;;13.43;12.03;;;6.90;91.00;;;;;;5095346;28;20428;-72
2021/03/19 00:50:11;;;;;;;13.73;12.33;;;6.90;91.00;;;;;;5094944;28;20468;-72
2021/03/19 00:52:37;;;;;;;14.43;11.77;;;6.90;91.20;;;;;;5094918;28;20859;-72
2021/03/19 00:55:05;;;;;;;14.10;12.80;;;6.90;91.20;;;;;;5094921;28;20447;-72
2021/03/19 00:57:32;;;;;;;13.23;11.87;;;6.80;91.20;;;;;;5094878;28;20509;-72
2021/03/19 00:59:58;;;;;;;13.73;12.30;;;6.90;91.30;;;;;;5094979;28;20463;-72
2021/03/19 01:02:25;;;;;;;15.00;12.73;;;6.90;91.30;;;;;;5094490;28;20436;-72
2021/03/19 01:04:51;;;;;;;15.00;13.50;;;6.90;91.20;;;;;;5094767;28;20450;-72
2021/03/19 01:07:17;;;;;;;13.83;12.40;;;6.90;91.30;;;;;;5094266;28;20452;-72
2021/03/19 01:09:43;;;;;;;14.47;13.07;;;6.90;91.30;;;;;;5094238;28;20440;-72
2021/03/19 01:12:10;;;;;;;19.73;14.77;;;6.80;91.40;;;;;;5094080;28;20479;-72
2021/03/19 01:14:36;;;;;;;15.33;13.73;;;6.80;91.40;;;;;;5094107;28;20866;-72
2021/03/19 01:17:02;;;;;;;13.90;11.30;;;6.90;91.40;;;;;;5094529;28;20448;-72
2021/03/19 01:19:29;;;;;;;16.53;13.20;;;6.80;91.10;;;;;;5094478;28;20443;-72
2021/03/19 01:21:56;;;;;;;15.70;14.23;;;6.80;91.00;;;;;;5094413;28;20807;-72
2021/03/19 01:24:22;;;;;;;15.57;13.40;;;6.80;90.90;;;;;;5094407;28;20436;-72
2021/03/19 01:26:48;;;;;;;15.43;13.70;;;6.70;90.70;;;;;;5094374;28;20432;-72
2021/03/19 01:29:15;;;;;;;14.23;12.70;;;6.70;90.80;;;;;;5094280;28;20835;-72
2021/03/19 01:31:41;;;;;;;15.53;13.87;;;6.70;90.80;;;;;;5093812;28;20529;-72
2021/03/19 01:34:07;;;;;;;17.30;15.13;;;6.70;90.70;;;;;;5094163;28;20444;-72
2021/03/19 01:36:34;;;;;;;16.47;13.90;;;6.70;90.70;;;;;;5093799;28;20450;-72
2021/03/19 01:39:00;;;;;;;20.80;15.80;;;6.70;90.60;;;;;;5094144;28;20443;-72
2021/03/19 01:41:27;;;;;;;16.53;13.87;;;6.60;90.50;;;;;;5093758;28;20812;-72
2021/03/19 01:43:54;;;;;;;17.77;14.93;;;6.60;90.30;;;;;;5094043;28;20470;-72
2021/03/19 01:46:57;;;;;;;19.90;15.73;;;6.60;90.20;;;;;;5094031;28;20452;-72
2021/03/19 01:50:00;;;;;;;17.67;15.33;;;6.60;90.20;;;;;;5094781;28;20450;-72
2021/03/19 01:53:04;;;;;;;17.00;13.30;;;6.60;90.10;;;;;;5093521;28;20475;-72
2021/03/19 01:56:08;;;;;;;19.93;15.17;;;6.50;90.00;;;;;;5093528;28;20883;-72
2021/03/19 01:59:11;;;;;;;15.00;13.40;;;6.50;89.70;;;;;;5093815;28;20439;-72
2021/03/19 02:02:14;;;;;;;16.60;14.70;;;6.40;89.50;;;;;;5093436;28;20460;-72
2021/03/19 02:05:17;;;;;;;16.13;13.53;;;6.40;89.50;;;;;;5093740;28;20451;-72
2021/03/19 02:08:21;;;;;;;17.40;14.30;;;6.40;89.30;;;;;;5093694;28;20427;-72
2021/03/19 02:11:24;;;;;;;23.17;14.87;;;6.30;89.30;;;;;;5093586;28;20459;-72
2021/03/19 02:14:28;;;;;;;18.13;15.80;;;6.30;89.50;;;;;;5093723;28;20443;-71
2021/03/19 02:17:31;;;;;;;16.83;15.03;;;6.30;90.00;;;;;;5093599;28;20450;-72
2021/03/19 02:20:35;;;;;;;19.13;16.20;;;6.30;90.00;;;;;;5093237;28;20461;-72
2021/03/19 02:23:38;;;;;;;18.00;15.17;;;6.30;90.10;;;;;;5093236;28;20941;-72
2021/03/19 02:26:41;;;;;;;18.93;15.90;;;6.30;90.20;;;;;;5097760;28;20435;-72
2021/03/19 02:29:45;;;;;;;17.70;15.67;;;6.30;90.30;;;;;;5097762;28;20439;-71
2021/03/19 02:32:15;;;;;;;19.87;15.70;;;6.30;90.30;;;;;;5097575;28;20506;-72
2021/03/19 02:34:45;;;;;;;23.23;17.47;;;6.30;90.30;;;;;;5097646;28;20451;-72
2021/03/19 02:37:15;;;;;;;18.33;16.40;;;6.30;90.20;;;;;;5097632;28;20435;-72
2021/03/19 02:39:41;;;;;;;20.17;16.73;;;6.20;90.60;;;;;;5097531;28;20432;-71
2021/03/19 02:42:10;;;;;;;19.10;16.77;;;6.20;90.40;;;;;;5097512;28;20439;-72
2021/03/19 02:44:37;;;;;;;18.80;15.63;;;6.20;90.40;;;;;;5097403;28;20450;-72
2021/03/19 02:47:05;;;;;;;19.67;17.70;;;6.20;90.20;;;;;;5097334;28;20963;-72
2021/03/19 02:49:33;;;;;;;17.30;15.47;;;6.20;90.20;;;;;;5097273;28;20463;-72
2021/03/19 02:51:59;;;;;;;18.10;16.20;;;6.20;90.20;;;;;;5097202;28;20485;-72
2021/03/19 02:54:26;;;;;;;21.17;17.37;;;6.20;90.10;;;;;;5097372;28;20432;-72
2021/03/19 02:56:52;;;;;;;19.90;17.30;;;6.20;90.10;;;;;;5097169;28;20852;-72
2021/03/19 02:59:19;;;;;;;18.27;16.30;;;6.20;90.00;;;;;;5097110;28;20469;-72
2021/03/19 03:01:46;;;;;;;16.10;14.47;;;6.10;89.50;;;;;;5097064;28;20455;-72
2021/03/19 03:04:13;;;;;;;18.10;16.17;;;6.10;89.40;;;;;;5097043;28;20538;-71
2021/03/19 03:06:41;;;;;;;17.47;15.13;;;6.10;89.30;;;;;;5096799;28;20968;-71
2021/03/19 03:09:10;;;;;;;19.10;16.80;;;6.10;89.20;;;;;;5098393;28;20451;-72
2021/03/19 03:11:37;;;;;;;19.03;16.10;;;6.00;89.10;;;;;;5097803;28;20460;-72
2021/03/19 03:14:06;;;;;;;20.80;17.20;;;6.00;89.10;;;;;;5097199;28;20451;-72
2021/03/19 03:16:32;;;;;;;21.70;18.83;;;6.00;89.10;;;;;;5096987;28;20440;-72
2021/03/19 03:18:58;;;;;;;20.90;17.67;;;5.90;89.00;;;;;;5096472;28;20844;-71
2021/03/19 03:21:25;;;;;;;24.20;17.97;;;5.90;89.00;;;;;;5096420;28;21001;-71
2021/03/19 03:23:53;;;;;;;23.23;17.67;;;5.80;89.00;;;;;;5096771;28;20516;-72
2021/03/19 03:26:19;;;;;;;20.33;18.23;;;5.80;89.00;;;;;;5096637;28;20451;-71
2021/03/19 03:28:45;;;;;;;20.93;18.27;;;5.80;89.20;;;;;;5096650;28;20463;-72
2021/03/19 03:31:11;;;;;;;21.33;18.53;;;5.80;89.20;;;;;;5096582;28;20468;-72
2021/03/19 03:33:37;;;;;;;18.70;16.67;;;5.70;89.30;;;;;;5096451;28;20536;-71
2021/03/19 03:36:06;;;;;;;20.80;17.90;;;5.70;89.40;;;;;;5095038;28;20929;-71
2021/03/19 03:38:32;;;;;;;21.27;17.30;;;5.60;89.40;;;;;;5096488;28;20447;-71
2021/03/19 03:41:01;;;;;;;22.93;17.60;;;5.60;89.40;;;;;;5096329;28;20467;-71
2021/03/19 03:43:28;;;;;;;20.40;16.73;;;5.60;89.30;;;;;;5096283;28;20446;-72
2021/03/19 03:45:55;;;;;;;21.20;17.47;;;5.60;89.30;;;;;;5096273;28;20450;-72
2021/03/19 03:48:23;;;;;;;22.30;19.20;;;5.50;89.30;;;;;;5096214;28;20446;-72
2021/03/19 03:50:50;;;;;;;20.60;18.00;;;5.50;89.30;;;;;;5096132;28;20463;-72
2021/03/19 03:53:17;;;;;;;20.93;17.67;;;5.50;89.10;;;;;;5096060;28;20482;-71
2021/03/19 03:55:43;;;;;;;20.67;18.13;;;5.50;89.10;;;;;;5096205;28;20883;-71
2021/03/19 03:58:13;;;;;;;23.20;16.70;;;5.50;89.10;;;;;;5095949;28;20456;-72
2021/03/19 04:00:40;;;;;;;18.97;16.93;;;5.50;89.10;;;;;;5095844;28;20460;-72
2021/03/19 04:03:08;;;;;;;20.23;16.97;;;5.40;89.10;;;;;;5095693;28;20444;-72
2021/03/19 04:05:36;;;;;;;20.80;18.10;;;5.40;89.10;;;;;;5095796;28;20459;-72
2021/03/19 04:08:03;;;;;;;19.50;17.40;;;5.40;89.20;;;;;;5095773;28;20446;-72
2021/03/19 04:10:30;;;;;;;21.40;17.27;;;5.40;89.10;;;;;;5095732;28;20478;-72
2021/03/19 04:12:57;;;;;;;20.07;17.60;;;5.40;89.10;;;;;;5095713;28;20480;-72
2021/03/19 04:15:24;;;;;;;21.80;17.87;;;5.40;88.90;;;;;;5095727;28;20455;-72
2021/03/19 04:17:55;;;;;;;18.80;16.40;;;5.30;88.70;;;;;;5095695;28;20448;-71
2021/03/19 04:20:21;;;;;;;22.10;18.27;;;5.30;88.90;;;;;;5095898;28;20464;-71
2021/03/19 04:22:48;;;;;;;22.30;17.57;;;5.30;88.90;;;;;;5095578;28;20801;-72
2021/03/19 04:25:15;;;;;;;25.10;19.10;;;5.30;88.90;;;;;;5095618;28;20452;-71
2021/03/19 04:27:46;;;;;;;21.43;18.40;;;5.30;88.90;;;;;;5095197;28;21015;-71
2021/03/19 04:30:18;;;;;;;19.27;17.33;;;5.30;89.10;;;;;;5095446;28;20452;-72
2021/03/19 04:32:45;;;;;;;19.40;17.00;;;5.30;89.20;;;;;;5095901;28;20495;-71
2021/03/19 04:35:13;;;;;;;22.43;18.60;;;5.30;89.60;;;;;;5095340;28;20478;-71
2021/03/19 04:37:39;;;;;;;18.57;16.57;;;5.30;89.80;;;;;;5095268;28;20436;-71
2021/03/19 04:40:07;;;;;;;18.73;16.13;;;5.30;90.10;;;;;;5095153;28;20558;-71
2021/03/19 04:42:33;;;;;;;17.57;14.80;;;5.40;90.30;;;;;;5094849;28;20934;-71
2021/03/19 04:45:00;;;;;;;18.60;15.80;;;5.40;90.20;;;;;;5095203;28;20788;-71
2021/03/19 04:47:26;;;;;;;19.70;16.00;;;5.40;90.30;;;;;;5094917;28;20447;-71
2021/03/19 04:49:54;;;;;;;19.83;17.30;;;5.40;90.40;;;;;;5094657;28;21027;-71
2021/03/19 04:52:20;;;;;;;20.00;15.10;;;5.40;90.40;;;;;;5094954;28;20483;-71
2021/03/19 04:54:46;;;;;;;21.97;17.23;;;5.40;90.40;;;;;;5094699;28;20436;-71
2021/03/19 04:57:12;;;;;;;19.37;15.30;;;5.40;90.50;;;;;;5094853;28;20443;-71
2021/03/19 04:59:39;;;;;;;20.87;16.90;;;5.40;90.40;;;;;;5094786;28;20444;-71
2021/03/19 05:02:05;;;;;;;22.20;16.50;;;5.40;90.40;;;;;;5094829;28;20816;-71
2021/03/19 05:04:31;;;;;;;16.80;15.00;;;5.40;90.30;;;;;;5094756;28;20444;-71
2021/03/19 05:07:02;;;;;;;16.90;15.10;;;5.40;90.20;;;;;;5094728;28;20456;-71
2021/03/19 05:09:29;;;;;;;20.77;16.13;;;5.40;90.20;;;;;;5094957;28;20486;-72
2021/03/19 05:11:56;;;;;;;22.83;17.27;;;5.30;90.00;;;;;;5094658;28;20483;-72
2021/03/19 05:14:23;;;;;;;23.17;16.87;;;5.40;90.00;;;;;;5094876;28;20440;-72
2021/03/19 05:16:49;;;;;;;20.20;18.00;;;5.40;90.00;;;;;;5094721;28;20443;-72
2021/03/19 05:19:16;;;;;;;19.73;17.63;;;5.30;89.70;;;;;;5094876;28;20444;-72
2021/03/19 05:21:42;;;;;;;22.20;17.80;;;5.30;89.50;;;;;;5094097;28;20973;-71
2021/03/19 05:24:11;;;;;;;19.73;17.03;;;5.30;89.60;;;;;;5094501;28;20447;-72
2021/03/19 05:26:39;;;;;;;22.33;18.73;;;5.30;89.50;;;;;;5094046;28;20938;-71
2021/03/19 05:29:05;;;;;;;20.87;16.83;;;5.20;89.50;;;;;;5093998;28;20443;-71
2021/03/19 05:31:31;;;;;;;24.50;19.70;;;5.30;89.60;;;;;;5094185;28;20464;-71
2021/03/19 05:33:58;;;;;;;27.97;19.03;;;5.20;89.40;;;;;;5094093;28;20487;-72
2021/03/19 05:36:26;;;;;;;22.33;18.60;;;5.30;89.40;;;;;;5094146;28;20444;-72
2021/03/19 05:38:53;;;;;;;20.20;17.10;;;5.30;89.40;;;;;;5093885;28;20440;-71
2021/03/19 05:41:22;;;;;;;20.90;17.53;;;5.20;89.20;;;;;;5094025;28;20468;-72
2021/03/19 05:43:50;;;;;;;22.37;17.00;;;5.30;89.30;;;;;;5094079;28;20439;-72
2021/03/19 05:46:21;;;;;;;19.20;16.70;;;5.20;89.10;;;;;;5093983;28;20500;-72
2021/03/19 05:48:54;;;;;;;20.93;15.63;;;5.20;89.10;;;;;;5093994;28;20439;-72
2021/03/19 05:51:33;;;;;;;19.93;15.97;;;5.20;89.10;;;;;;5093906;28;20463;-72
2021/03/19 05:54:09;;;;;;;21.50;16.20;;;5.20;89.20;;;;;;5093913;28;20486;-71
2021/03/19 05:56:37;;;;;;;22.23;16.20;;;5.20;89.20;;;;;;5094140;28;20435;-72
2021/03/19 05:59:04;;;;;;;17.97;15.80;;;5.20;88.90;;;;;;5093072;28;20910;-72
2021/03/19 06:01:31;;;;;;;18.77;15.73;;;5.20;89.00;;;;;;5093832;28;20497;-72
2021/03/19 06:03:58;;;;;;;23.03;17.00;;;5.20;88.90;;;;;;5093780;28;20432;-71
2021/03/19 06:06:45;;;;;;;22.27;16.10;;;5.20;88.80;;;;;;5093530;28;20949;-71
2021/03/19 06:09:24;;;;;;;20.63;15.00;;;5.10;88.60;;;;;;5093728;28;20428;-71
2021/03/19 06:11:54;;;;;;;18.83;15.83;;;5.10;88.60;;;;;;5093534;28;20471;-71
2021/03/19 06:14:22;;;;;;;18.67;15.70;;;5.10;88.60;;;;;;5094272;28;20424;-71
2021/03/19 06:16:50;;;;;;;22.20;15.27;;;5.10;88.60;;;;;;5093866;28;20785;-70
2021/03/19 06:19:27;;;;;;;20.30;16.40;;;5.10;88.60;;;;;;5093795;28;20446;-71
2021/03/19 06:22:20;;;;;;;20.97;16.00;;;5.10;88.60;;;;;;5093540;28;20471;-71
2021/03/19 06:24:55;;;;;;;23.30;16.60;;;5.20;88.70;;;;;;5083383;28;20452;-72
2021/03/19 06:27:25;;;;;;;22.00;17.43;;;5.20;88.70;;;;;;5093528;28;20427;-71
2021/03/19 06:29:55;;;;;;;16.80;14.60;;;5.20;88.50;;;;;;5093463;28;20424;-71
2021/03/19 06:32:30;;;;;;;20.90;15.70;;;5.20;88.50;;;;;;5093678;28;20460;-72
2021/03/19 06:35:15;;;;;;;21.60;16.57;;;5.10;88.30;;;;;;5093492;28;20858;-71
2021/03/19 06:37:43;;;;;;;19.20;15.37;;;5.20;88.30;;;;;;5093419;28;20435;-72
2021/03/19 06:40:30;;;;;;;21.23;16.20;;;5.20;88.40;;;;;;5093279;28;20460;-71
2021/03/19 06:43:13;;;;;;;20.50;14.87;;;5.20;88.60;;;;;;5093073;28;20795;-71
2021/03/19 06:45:39;;;;;;;17.27;13.97;;;5.20;88.40;;;;;;5093320;28;20435;-71
2021/03/19 06:48:26;;;;;;;21.23;16.63;;;5.30;88.30;;;;;;5093619;28;20443;-72
2021/03/19 06:50:52;;;;;;;18.80;15.57;;;5.30;88.30;;;;;;5093283;28;20913;-72
2021/03/19 06:53:22;;;;;;;17.20;13.30;;;5.30;88.00;;;;;;5092940;28;20483;-72
2021/03/19 06:55:52;;;;;;;18.53;13.80;;;5.30;88.00;;;;;;5093188;28;20444;-72
2021/03/19 06:58:37;;;;;;;19.37;14.47;;;5.30;88.00;;;;;;5093183;28;20830;-72
2021/03/19 07:01:11;;;;;;;13.90;12.50;;;5.30;87.70;;;;;;5093369;28;20459;-71
2021/03/19 07:03:57;;;;;;;15.17;12.53;;;5.40;87.60;;;;;;5093152;28;20772;-71
2021/03/19 07:06:45;;;;;;;15.23;11.67;;;5.30;87.20;;;;;;5093022;28;20459;-71
2021/03/19 07:09:21;;;;;;;11.77;9.87;;;5.40;87.10;;;;;;5093075;28;20428;-71
2021/03/19 07:12:04;;;;;;;13.87;9.83;;;5.40;86.80;;;;;;5097411;28;20471;-72
2021/03/19 07:14:56;;;;;;;13.33;10.73;;;5.40;86.50;;;;;;5096904;28;20435;-71
2021/03/19 07:17:39;;;;;;;13.70;10.20;;;5.40;85.90;;;;;;5097089;28;20457;-71
2021/03/19 07:20:15;;;;;;;11.27;9.93;;;5.40;85.50;;;;;;5096433;28;20970;-71
2021/03/19 07:23:02;;;;;;;12.80;10.77;;;5.50;85.50;;;;;;5096784;28;20415;-71
2021/03/19 07:26:02;;;;;;;10.90;9.47;;;5.50;84.60;;;;;;5096710;28;20431;-71
2021/03/19 07:29:07;;;;;;;13.10;9.27;;;5.60;84.60;;;;;;5096347;28;20481;-71
2021/03/19 07:31:55;;;;;;;12.93;10.00;;;5.60;84.70;;;;;;5096259;28;20831;-71
2021/03/19 07:34:37;;;;;;;10.67;9.27;;;5.70;84.20;;;;;;5096537;28;20419;-72
2021/03/19 07:37:15;;;;;;;11.07;9.57;;;5.80;83.70;;;;;;5096464;28;20428;-72
2021/03/19 07:39:53;;;;;;;12.13;9.53;;;5.80;83.60;;;;;;5096317;28;20428;-73
2021/03/19 07:42:32;;;;;;;9.80;8.80;;;5.90;83.40;;;;;;5096399;28;20424;-73
2021/03/19 07:45:03;;;;;;;9.90;8.87;;;5.90;82.80;;;;;;5096387;28;20423;-72
2021/03/19 07:48:01;;;;;;;10.17;9.17;;;5.90;82.00;;;;;;5095980;28;20909;-71
2021/03/19 07:50:43;;;;;;;13.03;10.13;;;6.00;82.00;;;;;;5096260;28;20464;-71
2021/03/19 07:53:40;;;;;;;9.73;7.50;;;6.00;82.00;;;;;;5096295;28;20972;-72
2021/03/19 07:56:17;;;;;;;9.27;8.37;;;6.10;82.10;;;;;;5096203;28;20436;-71
2021/03/19 07:58:53;;;;;;;10.30;9.30;;;6.10;81.90;;;;;;5095855;28;20921;-71
2021/03/19 08:01:27;;;;;;;8.30;7.50;;;6.20;81.30;;;;;;5095701;28;20516;-72
2021/03/19 08:04:02;;;;;;;9.70;8.20;;;6.30;81.00;;;;;;5096024;28;20481;-71
2021/03/19 08:06:33;;;;;;;9.63;8.40;;;6.30;80.90;;;;;;5095722;28;20458;-72
2021/03/19 08:09:03;;;;;;;9.53;7.70;;;6.40;80.60;;;;;;5096224;28;20431;-71
2021/03/19 08:11:39;;;;;;;12.50;8.83;;;6.50;80.60;;;;;;5095755;28;20460;-71
2021/03/19 08:14:26;;;;;;;9.10;8.20;;;6.60;80.00;;;;;;5095996;28;20460;-72
2021/03/19 08:16:58;;;;;;;8.93;8.00;;;6.60;79.50;;;;;;5095712;28;20428;-71
2021/03/19 08:19:32;;;;;;;9.87;8.87;;;6.70;80.00;;;;;;5095714;28;20431;-71
2021/03/19 08:22:08;;;;;;;10.00;8.33;;;6.80;79.80;;;;;;5095429;28;20459;-72
2021/03/19 08:24:44;;;;;;;9.07;8.17;;;6.90;79.00;;;;;;5095562;28;20435;-72
2021/03/19 08:27:14;;;;;;;9.57;8.67;;;7.00;78.60;;;;;;5095569;28;20424;-72
2021/03/19 08:29:52;;;;;;;9.03;8.17;;;7.10;78.40;;;;;;5094997;28;20902;-72
2021/03/19 08:32:42;;;;;;;9.40;7.90;;;7.20;77.80;;;;;;5095371;28;20463;-72
2021/03/19 08:35:19;;;;;;;7.77;6.97;;;7.30;78.00;;;;;;5095401;28;20470;-72
2021/03/19 08:37:55;;;;;;;8.97;7.43;;;7.40;77.60;;;;;;5095463;28;20435;-72
2021/03/19 08:40:28;;;;;;;8.77;7.90;;;7.40;76.00;;;;;;5094914;28;20992;-72
2021/03/19 08:42:56;;;;;;;8.33;7.03;;;7.50;75.60;;;;;;5095260;28;20470;-72
2021/03/19 08:45:25;;;;;;;8.37;7.27;;;7.60;75.40;;;;;;5095433;28;20431;-72
2021/03/19 08:47:55;;;;;;;11.13;6.50;;;7.60;75.20;;;;;;5095096;28;20443;-72
2021/03/19 08:50:33;;;;;;;13.30;8.27;;;7.70;75.40;;;;;;5094792;28;21047;-72
2021/03/19 08:53:06;;;;;;;7.10;5.90;;;7.70;75.40;;;;;;5095040;28;20476;-72
2021/03/19 08:55:33;;;;;;;7.03;6.37;;;7.80;74.90;;;;;;5094675;28;20925;-72
2021/03/19 08:58:45;;;;;;;7.77;6.70;;;7.90;74.50;;;;;;5094982;28;20435;-72
2021/03/19 09:01:12;;;;;;;7.97;6.60;;;7.90;73.90;;;;;;5094520;28;20463;-72
2021/03/19 09:03:59;;;;;;;8.53;7.00;;;8.00;73.20;;;;;;5094828;28;20435;-72
2021/03/19 09:06:32;;;;;;;7.13;6.00;;;8.10;74.80;;;;;;5089393;28;20801;-72
2021/03/19 09:09:35;;;;;;;7.87;7.07;;;8.20;73.50;;;;;;5094674;28;20427;-72
2021/03/19 09:12:11;;;;;;;7.53;5.80;;;8.30;72.70;;;;;;5094542;28;20453;-72
2021/03/19 09:14:45;;;;;;;8.30;6.00;;;8.30;72.40;;;;;;5094629;28;20599;-72
2021/03/19 09:17:49;;;;;;;7.90;6.27;;;8.40;72.40;;;;;;5094617;28;20441;-72
2021/03/19 09:20:33;;;;;;;6.90;6.30;;;8.50;72.40;;;;;;5094495;28;20596;-72
2021/03/19 09:23:19;;;;;;;6.10;5.50;;;8.60;70.80;;;;;;5094505;28;20492;-72
2021/03/19 09:25:49;;;;;;;6.87;6.10;;;8.70;70.70;;;;;;5094442;28;20428;-72
2021/03/19 09:28:54;;;;;;;6.07;5.47;;;8.80;69.50;;;;;;5094426;28;20434;-72
2021/03/19 09:31:43;;;;;;;5.50;4.90;;;8.90;68.40;;;;;;5088679;28;20985;-72
2021/03/19 09:34:16;;;;;;;7.73;5.50;;;9.00;67.20;;;;;;5093332;28;20456;-72
2021/03/19 09:37:08;;;;;;;6.47;5.33;;;9.00;67.30;;;;;;5094245;28;20428;-72
2021/03/19 09:39:55;;;;;;;5.70;4.97;;;9.10;68.10;;;;;;5091525;28;20471;-72
2021/03/19 09:42:48;;;;;;;5.00;4.50;;;9.10;66.10;;;;;;5094088;28;20428;-72
2021/03/19 09:45:19;;;;;;;8.33;4.73;;;9.30;65.40;;;;;;5094091;28;20476;-72
2021/03/19 09:47:49;;;;;;;6.13;4.53;;;9.40;65.20;;;;;;5093725;28;20917;-72
2021/03/19 09:50:19;;;;;;;4.70;4.30;;;9.60;64.10;;;;;;5093965;28;20467;-72
2021/03/19 09:52:56;;;;;;;5.53;3.60;;;9.80;63.30;;;;;;5093946;28;20815;-72
2021/03/19 09:55:25;;;;;;;4.73;4.33;;;10.00;62.30;;;;;;5093972;28;20428;-72
2021/03/19 09:57:52;;;;;;;5.23;4.60;;;10.20;61.50;;;;;;5093930;28;20432;-72
2021/03/19 10:00:22;;;;;;;4.77;4.37;;;10.40;60.30;;;;;;5093514;28;20483;-72
2021/03/19 10:02:48;;;;;;;5.93;4.03;;;10.60;59.10;;;;;;5093799;28;20444;-72
2021/03/19 10:05:17;;;;;;;4.70;4.00;;;10.90;58.80;;;;;;5093603;28;20455;-72
2021/03/19 10:07:46;;;;;;;3.93;3.53;;;11.10;57.30;;;;;;5094001;28;20428;-72
2021/03/19 10:10:32;;;;;;;5.20;4.00;;;11.20;56.10;;;;;;5093779;28;20533;-72
2021/03/19 10:13:14;;;;;;;7.03;4.23;;;11.50;56.00;;;;;;5093653;28;20467;-72
2021/03/19 10:15:42;;;;;;;4.17;3.20;;;11.70;55.00;;;;;;5093801;28;20427;-71
2021/03/19 10:18:10;;;;;;;4.50;3.40;;;11.60;53.10;;;;;;5093946;28;20431;-71
2021/03/19 10:20:39;;;;;;;4.60;3.47;;;11.50;53.20;;;;;;5093611;28;20470;-72
2021/03/19 10:23:16;;;;;;;5.53;3.07;;;11.40;54.20;;;;;;5093669;28;20444;-71
2021/03/19 10:25:44;;;;;;;3.63;2.83;;;11.20;54.10;;;;;;5093331;28;20485;-71
2021/03/19 10:28:23;;;;;;;3.10;2.80;;;11.00;54.10;;;;;;5093530;28;20428;-72
2021/03/19 10:30:52;;;;;;;3.00;2.70;;;10.90;54.30;;;;;;5093145;28;20969;-72
2021/03/19 10:33:21;;;;;;;3.60;3.23;;;10.90;55.50;;;;;;5093368;28;20475;-72
2021/03/19 10:35:52;;;;;;;3.80;2.80;;;11.00;55.40;;;;;;5093186;28;20938;-72
2021/03/19 10:38:29;;;;;;;3.10;2.60;;;11.20;55.40;;;;;;5093501;28;20432;-71
2021/03/19 10:41:00;;;;;;;4.67;3.00;;;11.60;54.00;;;;;;5093439;28;20493;-71
2021/03/19 10:43:30;;;;;;;2.93;2.67;;;12.00;52.40;;;;;;5093553;28;20424;-71
2021/03/19 10:46:02;;;;;;;4.37;1.90;;;12.80;52.00;;;;;;5095802;28;20485;-71
2021/03/19 10:48:39;;;;;;;2.40;2.20;;;13.60;49.00;;;;;;5097449;28;20489;-71
2021/03/19 10:51:13;;;;;;;3.07;2.27;;;14.40;46.50;;;;;;5097417;28;20467;-71
2021/03/19 10:53:58;;;;;;;3.40;2.10;;;15.30;46.80;;;;;;5096907;28;20907;-71
2021/03/19 10:56:27;;;;;;;2.50;2.27;;;15.90;42.30;;;;;;5097883;28;20523;-72
2021/03/19 10:59:07;;;;;;;2.17;1.97;;;16.10;41.50;;;;;;5097260;28;20442;-72
2021/03/19 11:01:37;;;;;;;4.53;2.00;;;16.20;40.30;;;;;;5097183;28;20467;-71
2021/03/19 11:04:24;;;;;;;2.13;2.00;;;16.20;39.80;;;;;;5096883;28;20435;-72
2021/03/19 11:06:50;;;;;;;1.67;1.50;;;15.90;39.20;;;;;;5096722;28;20462;-72
2021/03/19 11:09:19;;;;;;;2.93;2.03;;;15.60;38.90;;;;;;5097126;28;20424;-72
2021/03/19 11:11:49;;;;;;;3.90;2.70;;;15.60;39.30;;;;;;5096652;28;20463;-72
2021/03/19 11:14:21;;;;;;;3.20;1.90;;;16.00;41.50;;;;;;5096892;28;20464;-72
2021/03/19 11:16:49;;;;;;;3.10;1.63;;;16.90;40.40;;;;;;5096862;28;20431;-72
2021/03/19 11:19:19;;;;;;;2.80;2.00;;;17.80;37.60;;;;;;5096573;28;20742;-73
2021/03/19 11:21:52;;;;;;;2.33;1.93;;;18.50;35.00;;;;;;5096774;28;20459;-73
2021/03/19 11:24:23;;;;;;;1.87;1.70;;;18.80;33.80;;;;;;5096479;28;20424;-73
2021/03/19 11:27:03;;;;;;;2.60;2.13;;;19.00;33.30;;;;;;5096445;28;20424;-73
2021/03/19 11:29:34;;;;;;;2.17;1.97;;;18.90;33.50;;;;;;5096661;28;20793;-73
2021/03/19 11:32:07;;;;;;;1.90;1.80;;;19.00;33.60;;;;;;5096325;28;20964;-72
2021/03/19 11:34:37;;;;;;;5.80;1.60;;;19.70;33.10;;;;;;5096572;28;20494;-72
2021/03/19 11:37:07;;;;;;;4.70;1.43;;;20.30;31.50;;;;;;5096558;28;20996;-74
2021/03/19 11:39:52;;;;;;;3.17;1.50;;;21.00;31.10;;;;;;5096497;28;20458;-72
2021/03/19 11:42:21;;;;;;;1.87;1.73;;;21.50;30.50;;;;;;5096414;28;20432;-73
2021/03/19 11:44:49;;;;;;;1.90;1.50;;;22.00;29.60;;;;;;5096184;28;20813;-72
2021/03/19 11:47:18;;;;;;;1.80;1.60;;;21.70;28.70;;;;;;5096078;28;20493;-72
2021/03/19 11:49:45;;;;;;;3.23;1.97;;;21.60;29.20;;;;;;5096276;28;20432;-72
2021/03/19 11:52:13;;;;;;;4.80;2.27;;;21.70;29.00;;;;;;5095991;28;20428;-72
2021/03/19 11:54:40;;;;;;;2.37;2.17;;;21.90;28.80;;;;;;5096248;28;20436;-72
2021/03/19 11:57:07;;;;;;;2.50;1.80;;;21.90;27.70;;;;;;5095236;28;20439;-72
2021/03/19 11:59:35;;;;;;;1.73;1.20;;;22.10;26.90;;;;;;5096366;28;20436;-72
2021/03/19 12:02:05;;;;;;;2.90;2.20;;;22.40;27.70;;;;;;5095584;28;20957;-73
2021/03/19 12:04:31;;;;;;;1.80;1.50;;;23.10;27.70;;;;;;5096049;28;20424;-71
2021/03/19 12:06:57;;;;;;;1.93;1.40;;;23.80;26.10;;;;;;5095868;28;20454;-72
2021/03/19 12:09:24;;;;;;;2.37;1.70;;;24.20;25.40;;;;;;5096059;28;20424;-71
2021/03/19 12:11:50;;;;;;;1.40;1.30;;;24.30;25.90;;;;;;5095673;28;20452;-72
2021/03/19 12:14:19;;;;;;;2.40;1.20;;;24.80;25.80;;;;;;5095813;28;20478;-76
2021/03/19 12:16:46;;;;;;;1.40;1.10;;;25.50;24.70;;;;;;5095819;28;20440;-72
2021/03/19 12:19:14;;;;;;;1.50;1.40;;;26.30;23.70;;;;;;5095799;28;20436;-72
2021/03/19 12:21:41;;;;;;;2.40;1.27;;;26.80;21.90;;;;;;5095685;28;20555;-72
2021/03/19 12:24:07;;;;;;;1.60;1.50;;;27.50;22.60;;;;;;5095694;28;20444;-72
2021/03/19 12:26:34;;;;;;;1.57;1.47;;;27.90;21.40;;;;;;5096124;28;20446;-72
2021/03/19 12:29:00;;;;;;;1.83;1.20;;;27.70;21.50;;;;;;5095516;28;20431;-72
2021/03/19 12:31:26;;;;;;;2.13;1.30;;;27.10;21.60;;;;;;5095462;28;20468;-72
2021/03/19 12:33:54;;;;;;;1.30;1.20;;;27.00;21.60;;;;;;5095311;28;20479;-72
2021/03/19 12:36:20;;;;;;;1.67;1.17;;;27.30;22.00;;;;;;5095530;28;20443;-72
2021/03/19 12:38:46;;;;;;;0.83;0.80;;;27.80;21.80;;;;;;5095337;28;20533;-73
2021/03/19 12:41:13;;;;;;;1.50;1.10;;;28.50;21.10;;;;;;5094964;28;20475;-72
2021/03/19 12:43:40;;;;;;;1.97;1.33;;;29.00;20.20;;;;;;5095245;28;20444;-74
2021/03/19 12:46:06;;;;;;;2.30;1.60;;;29.50;19.80;;;;;;5095226;28;20782;-76
2021/03/19 12:48:32;;;;;;;2.00;1.90;;;29.90;19.30;;;;;;5095057;28;20443;-75
2021/03/19 12:51:00;;;;;;;2.17;1.90;;;30.00;18.10;;;;;;5095043;28;20459;-76
2021/03/19 12:53:26;;;;;;;1.30;1.20;;;30.20;19.40;;;;;;5094993;28;20475;-73
2021/03/19 12:55:53;;;;;;;3.90;1.40;;;30.60;19.50;;;;;;5094998;28;20538;-73
2021/03/19 12:58:21;;;;;;;2.03;1.20;;;30.70;17.60;;;;;;5095048;28;20435;-72
2021/03/19 13:00:47;;;;;;;2.10;1.80;;;30.80;18.80;;;;;;5094834;28;20471;-74
2021/03/19 13:03:14;;;;;;;1.90;1.40;;;31.20;18.60;;;;;;5094558;28;20850;-73
2021/03/19 13:05:42;;;;;;;1.83;1.00;;;31.50;18.10;;;;;;5094414;28;20987;-72
2021/03/19 13:08:09;;;;;;;1.47;1.10;;;31.50;17.90;;;;;;5095081;28;20446;-74
2021/03/19 13:10:36;;;;;;;1.50;1.17;;;31.20;17.10;;;;;;5094682;28;20466;-74
2021/03/19 13:13:03;;;;;;;1.40;1.30;;;31.10;17.70;;;;;;5094642;28;20531;-72